Time;durP1;ratioP1;P1;durP2;ratioP2;P2;SDS_P1;SDS_P2;PMS_P1;PMS_P2;Temp;Humidity;BMP_temperature;BMP_pressure;BME280_temperature;BME280_humidity;BME280_pressure;Samples;Min_cycle;Max_cycle;Signal;HPM_P1;HPM_P2
2021/10/20 00:01:20;;;;;;;17.45;7.82;;;4.80;62.80;;;;;;5038660;28;20021;-35
2021/10/20 00:03:46;;;;;;;16.88;7.97;;;4.80;62.90;;;;;;5039040;28;20033;-36
2021/10/20 00:06:12;;;;;;;18.27;7.55;;;4.80;62.90;;;;;;5038693;28;20025;-35
2021/10/20 00:08:38;;;;;;;14.13;7.22;;;4.80;62.90;;;;;;5039048;28;20307;-37
2021/10/20 00:11:03;;;;;;;12.70;7.30;;;4.80;62.90;;;;;;5038668;28;20043;-37
2021/10/20 00:13:29;;;;;;;16.50;7.05;;;4.70;62.90;;;;;;5038875;28;20112;-35
2021/10/20 00:15:55;;;;;;;15.13;6.40;;;4.70;62.90;;;;;;5038532;28;20360;-34
2021/10/20 00:18:21;;;;;;;13.70;6.80;;;4.70;62.90;;;;;;5038656;28;20029;-38
2021/10/20 00:20:47;;;;;;;12.70;6.57;;;4.70;62.90;;;;;;5038200;28;20034;-34
2021/10/20 00:23:13;;;;;;;18.65;7.30;;;4.60;62.90;;;;;;5038685;28;20417;-37
2021/10/20 00:25:40;;;;;;;14.60;6.65;;;4.60;63.00;;;;;;5038658;28;20037;-37
2021/10/20 00:28:07;;;;;;;14.98;7.50;;;4.60;63.00;;;;;;5038519;28;20029;-37
2021/10/20 00:30:33;;;;;;;19.77;7.97;;;4.50;63.00;;;;;;5038281;28;20038;-37
2021/10/20 00:32:59;;;;;;;18.35;8.43;;;4.50;63.10;;;;;;5038519;28;20030;-38
2021/10/20 00:35:25;;;;;;;21.90;10.30;;;4.40;63.10;;;;;;5038071;28;20322;-38
2021/10/20 00:37:51;;;;;;;19.17;9.00;;;4.40;63.20;;;;;;5038260;28;20044;-35
2021/10/20 00:40:17;;;;;;;19.40;8.70;;;4.30;63.20;;;;;;5037910;28;20040;-35
2021/10/20 00:42:43;;;;;;;27.15;10.70;;;4.30;63.30;;;;;;5038308;28;20033;-38
2021/10/20 00:45:09;;;;;;;25.33;11.23;;;4.30;63.30;;;;;;5037969;28;20465;-35
2021/10/20 00:47:38;;;;;;;28.30;12.38;;;4.30;63.40;;;;;;5038098;28;20034;-35
2021/10/20 00:50:10;;;;;;;27.05;11.82;;;4.30;63.40;;;;;;5037874;28;20041;-34
2021/10/20 00:52:36;;;;;;;25.98;12.18;;;4.20;63.40;;;;;;5037938;28;20037;-37
2021/10/20 00:55:04;;;;;;;39.20;13.45;;;4.20;63.40;;;;;;5036569;28;20037;-37
2021/10/20 00:57:30;;;;;;;35.70;13.82;;;4.20;63.50;;;;;;5037685;28;20430;-37
2021/10/20 00:59:58;;;;;;;72.60;17.52;;;4.10;63.50;;;;;;5037929;28;20087;-38
2021/10/20 01:02:24;;;;;;;39.00;14.93;;;4.10;63.60;;;;;;5037711;28;20041;-34
2021/10/20 01:04:50;;;;;;;34.28;15.98;;;4.10;63.70;;;;;;5037338;28;20034;-35
2021/10/20 01:07:17;;;;;;;33.88;15.57;;;4.00;63.80;;;;;;5037261;28;20037;-35
2021/10/20 01:09:44;;;;;;;36.03;15.52;;;4.00;63.90;;;;;;5037361;28;20038;-36
2021/10/20 01:12:10;;;;;;;42.80;16.75;;;4.00;63.90;;;;;;5037449;28;20041;-34
2021/10/20 01:14:37;;;;;;;38.00;16.90;;;4.00;64.00;;;;;;5037338;28;20033;-37
2021/10/20 01:17:03;;;;;;;37.88;17.98;;;4.00;64.00;;;;;;5037440;28;20051;-34
2021/10/20 01:19:30;;;;;;;42.92;18.65;;;3.90;63.90;;;;;;5037319;28;20036;-37
2021/10/20 01:21:56;;;;;;;42.67;19.65;;;3.90;63.90;;;;;;5036265;28;20029;-38
2021/10/20 01:24:22;;;;;;;54.45;23.65;;;3.80;63.90;;;;;;5037717;28;20037;-36
2021/10/20 01:26:53;;;;;;;45.60;22.38;;;3.80;64.00;;;;;;5035846;28;20384;-38
2021/10/20 01:29:20;;;;;;;44.83;19.73;;;3.80;64.10;;;;;;5037443;28;20508;-33
2021/10/20 01:31:51;;;;;;;46.80;20.80;;;3.80;64.10;;;;;;5036874;28;20052;-34
2021/10/20 01:34:16;;;;;;;45.88;21.50;;;3.70;64.10;;;;;;5037256;28;20033;-37
2021/10/20 01:36:43;;;;;;;50.25;22.48;;;3.80;64.20;;;;;;5037139;28;20307;-35
2021/10/20 01:39:09;;;;;;;43.53;20.25;;;3.70;64.10;;;;;;5037166;28;20076;-34
2021/10/20 01:41:36;;;;;;;54.10;23.80;;;3.80;64.20;;;;;;5036918;28;20029;-34
2021/10/20 01:44:02;;;;;;;45.40;21.77;;;3.80;64.30;;;;;;5037340;28;20033;-37
2021/10/20 01:46:27;;;;;;;42.72;20.95;;;3.70;64.20;;;;;;5036495;28;20319;-37
2021/10/20 01:48:53;;;;;;;47.67;21.38;;;3.70;64.20;;;;;;5037211;28;20087;-35
2021/10/20 01:51:19;;;;;;;46.95;21.13;;;3.70;64.10;;;;;;5036463;28;20060;-38
2021/10/20 01:53:44;;;;;;;47.58;21.33;;;3.70;64.10;;;;;;5037175;28;20029;-35
2021/10/20 01:56:12;;;;;;;52.72;21.40;;;3.70;64.10;;;;;;5036378;28;20315;-37
2021/10/20 01:58:39;;;;;;;66.13;23.15;;;3.70;64.10;;;;;;5037013;28;20033;-38
2021/10/20 02:01:07;;;;;;;49.10;21.13;;;3.70;64.10;;;;;;5036561;28;20044;-37
2021/10/20 02:03:37;;;;;;;50.92;21.15;;;3.70;64.30;;;;;;5036785;28;20037;-38
2021/10/20 02:06:05;;;;;;;45.75;19.05;;;3.60;64.20;;;;;;5036539;28;20040;-35
2021/10/20 02:08:31;;;;;;;43.20;20.02;;;3.70;64.40;;;;;;5036746;28;20330;-35
2021/10/20 02:10:57;;;;;;;40.88;18.02;;;3.60;64.30;;;;;;5036366;28;20037;-34
2021/10/20 02:13:22;;;;;;;39.60;17.63;;;3.60;64.30;;;;;;5036710;28;20043;-34
2021/10/20 02:15:48;;;;;;;39.10;18.02;;;3.60;64.30;;;;;;5036273;28;20029;-35
2021/10/20 02:18:14;;;;;;;40.38;18.05;;;3.60;64.40;;;;;;5036429;28;20029;-37
2021/10/20 02:20:40;;;;;;;33.15;17.30;;;3.60;64.40;;;;;;5035902;28;20026;-35
2021/10/20 02:23:05;;;;;;;37.03;17.48;;;3.60;64.30;;;;;;5036378;28;20041;-38
2021/10/20 02:25:31;;;;;;;36.90;16.08;;;3.60;64.20;;;;;;5036081;28;20036;-35
2021/10/20 02:27:57;;;;;;;37.95;15.65;;;3.60;64.10;;;;;;5036208;28;20029;-35
2021/10/20 02:30:23;;;;;;;48.38;16.67;;;3.60;64.10;;;;;;5036058;28;20032;-37
2021/10/20 02:32:48;;;;;;;37.92;15.77;;;3.60;64.20;;;;;;5036203;28;20096;-37
2021/10/20 02:35:14;;;;;;;33.05;15.38;;;3.60;64.20;;;;;;5036080;28;20025;-37
2021/10/20 02:37:40;;;;;;;32.50;15.10;;;3.60;64.20;;;;;;5036102;28;20040;-38
2021/10/20 02:40:07;;;;;;;35.20;15.55;;;3.60;64.30;;;;;;5036098;28;20465;-37
2021/10/20 02:42:33;;;;;;;35.05;14.63;;;3.60;64.30;;;;;;5035795;28;20083;-38
2021/10/20 02:44:59;;;;;;;33.60;15.63;;;3.50;64.80;;;;;;5036043;28;20026;-37
2021/10/20 02:47:24;;;;;;;35.05;15.43;;;3.50;64.20;;;;;;5035647;28;20091;-38
2021/10/20 02:49:50;;;;;;;34.85;14.02;;;3.50;64.20;;;;;;5035604;28;20075;-37
2021/10/20 02:52:18;;;;;;;40.10;15.90;;;3.50;64.20;;;;;;5035459;28;20037;-38
2021/10/20 02:54:44;;;;;;;35.15;15.38;;;3.50;64.10;;;;;;5035495;28;20057;-37
2021/10/20 02:57:10;;;;;;;32.97;14.40;;;3.50;64.10;;;;;;5035527;28;20084;-37
2021/10/20 02:59:35;;;;;;;37.70;15.63;;;3.50;64.10;;;;;;5035792;28;20021;-38
2021/10/20 03:02:01;;;;;;;49.08;17.80;;;3.50;64.10;;;;;;5035567;28;20155;-35
2021/10/20 03:04:27;;;;;;;31.35;15.10;;;3.50;64.20;;;;;;5035368;28;20040;-35
2021/10/20 03:06:52;;;;;;;38.22;16.88;;;3.40;64.10;;;;;;5035730;28;20030;-35
2021/10/20 03:09:18;;;;;;;35.05;14.55;;;3.50;64.20;;;;;;5035311;28;20111;-35
2021/10/20 03:11:44;;;;;;;29.13;14.35;;;3.40;64.20;;;;;;5035727;28;20164;-38
2021/10/20 03:14:09;;;;;;;28.75;13.55;;;3.40;64.20;;;;;;5035528;28;20032;-34
2021/10/20 03:16:35;;;;;;;36.97;14.25;;;3.40;64.20;;;;;;5035297;28;20033;-39
2021/10/20 03:19:01;;;;;;;28.83;14.45;;;3.40;64.20;;;;;;5035564;28;20056;-38
2021/10/20 03:21:27;;;;;;;36.08;14.90;;;3.40;64.30;;;;;;5035244;28;20518;-34
2021/10/20 03:23:53;;;;;;;37.90;15.02;;;3.40;64.30;;;;;;5035466;28;20497;-36
2021/10/20 03:26:18;;;;;;;33.63;15.98;;;3.40;64.30;;;;;;5035086;28;20029;-38
2021/10/20 03:28:44;;;;;;;42.38;14.52;;;3.40;64.30;;;;;;5038017;28;20025;-34
2021/10/20 03:31:10;;;;;;;34.28;14.70;;;3.40;64.40;;;;;;5039292;28;20045;-38
2021/10/20 03:33:35;;;;;;;39.28;14.82;;;3.40;64.40;;;;;;5039753;28;20061;-35
2021/10/20 03:36:01;;;;;;;28.52;13.15;;;3.40;64.40;;;;;;5039560;28;20032;-35
2021/10/20 03:38:27;;;;;;;31.27;14.27;;;3.40;64.40;;;;;;5039362;28;20029;-38
2021/10/20 03:40:53;;;;;;;31.15;14.85;;;3.40;64.40;;;;;;5039217;28;20318;-35
2021/10/20 03:43:19;;;;;;;39.58;13.35;;;3.40;64.50;;;;;;5039370;28;20025;-38
2021/10/20 03:45:44;;;;;;;32.90;15.32;;;3.40;64.60;;;;;;5039328;28;20036;-38
2021/10/20 03:48:10;;;;;;;33.15;14.60;;;3.40;64.60;;;;;;5039152;28;20033;-34
2021/10/20 03:50:35;;;;;;;30.90;14.27;;;3.40;64.50;;;;;;5038923;28;20163;-39
2021/10/20 03:53:01;;;;;;;27.13;12.88;;;3.40;64.40;;;;;;5039200;28;20087;-38
2021/10/20 03:55:27;;;;;;;35.33;15.00;;;3.40;64.40;;;;;;5038830;28;20473;-42
2021/10/20 03:57:52;;;;;;;41.25;15.70;;;3.40;64.40;;;;;;5039087;28;20568;-35
2021/10/20 04:00:18;;;;;;;27.40;13.13;;;3.40;64.40;;;;;;5038489;28;20083;-39
2021/10/20 04:02:46;;;;;;;35.72;14.23;;;3.40;64.40;;;;;;5039139;28;20030;-36
2021/10/20 04:05:14;;;;;;;39.55;13.65;;;3.40;64.50;;;;;;5038804;28;20257;-34
2021/10/20 04:07:40;;;;;;;35.67;14.02;;;3.40;64.70;;;;;;5038598;28;20276;-35
2021/10/20 04:10:12;;;;;;;35.83;15.25;;;3.40;64.70;;;;;;5038650;28;20057;-37
2021/10/20 04:12:38;;;;;;;42.83;15.23;;;3.40;64.70;;;;;;5038950;28;20121;-37
2021/10/20 04:15:04;;;;;;;33.80;15.10;;;3.40;64.70;;;;;;5038352;28;20493;-34
2021/10/20 04:17:30;;;;;;;63.28;17.73;;;3.50;64.80;;;;;;5038446;28;20035;-34
2021/10/20 04:19:56;;;;;;;73.53;18.75;;;3.50;64.80;;;;;;5038428;28;20104;-34
2021/10/20 04:22:21;;;;;;;42.53;16.88;;;3.50;64.90;;;;;;5038439;28;20083;-35
2021/10/20 04:24:47;;;;;;;50.95;19.10;;;3.50;64.90;;;;;;5038306;28;20326;-37
2021/10/20 04:27:13;;;;;;;62.55;20.92;;;3.50;65.00;;;;;;5038133;28;20361;-35
2021/10/20 04:29:38;;;;;;;59.42;17.50;;;3.50;64.90;;;;;;5038354;28;20548;-38
2021/10/20 04:32:04;;;;;;;49.00;17.55;;;3.50;64.90;;;;;;5038151;28;20490;-35
2021/10/20 04:34:30;;;;;;;49.05;16.25;;;3.50;64.80;;;;;;5038454;28;20041;-36
2021/10/20 04:36:56;;;;;;;57.88;18.00;;;3.50;64.90;;;;;;5037936;28;20025;-35
2021/10/20 04:39:22;;;;;;;39.63;18.10;;;3.50;65.00;;;;;;5036729;28;20025;-35
2021/10/20 04:41:47;;;;;;;50.42;17.08;;;3.50;65.10;;;;;;5038219;28;20118;-37
2021/10/20 04:44:13;;;;;;;46.40;16.85;;;3.40;65.20;;;;;;5037930;28;20036;-38
2021/10/20 04:46:38;;;;;;;59.10;20.30;;;3.40;65.30;;;;;;5037679;28;20033;-37
2021/10/20 04:49:04;;;;;;;68.60;18.67;;;3.50;65.40;;;;;;5037869;28;20039;-38
2021/10/20 04:51:30;;;;;;;41.72;16.90;;;3.40;65.40;;;;;;5037546;28;20033;-38
2021/10/20 04:53:55;;;;;;;63.83;19.27;;;3.50;65.50;;;;;;5037921;28;20033;-34
2021/10/20 04:56:21;;;;;;;80.80;20.98;;;3.50;65.60;;;;;;5036919;28;20041;-38
2021/10/20 04:58:47;;;;;;;105.90;23.27;;;3.50;65.60;;;;;;5038042;28;20037;-34
2021/10/20 05:01:12;;;;;;;72.78;19.70;;;3.50;65.70;;;;;;5037511;28;20529;-34
2021/10/20 05:03:38;;;;;;;69.38;20.40;;;3.60;65.70;;;;;;5038182;28;20137;-37
2021/10/20 05:06:05;;;;;;;63.83;19.20;;;3.70;65.70;;;;;;5037502;28;20029;-34
2021/10/20 05:08:30;;;;;;;97.22;23.33;;;3.70;65.70;;;;;;5037319;28;20115;-38
2021/10/20 05:10:58;;;;;;;59.50;20.63;;;3.80;65.80;;;;;;5037404;28;20026;-38
2021/10/20 05:13:24;;;;;;;59.25;19.80;;;3.90;65.80;;;;;;5037613;28;20303;-39
2021/10/20 05:15:50;;;;;;;73.13;20.40;;;4.00;65.90;;;;;;5037292;28;20053;-36
2021/10/20 05:18:16;;;;;;;59.55;21.23;;;4.10;65.90;;;;;;5037357;28;20370;-36
2021/10/20 05:20:41;;;;;;;46.17;19.10;;;4.20;65.90;;;;;;5037244;28;20026;-39
2021/10/20 05:23:10;;;;;;;51.75;17.98;;;4.30;65.90;;;;;;5037317;28;20033;-35
2021/10/20 05:25:38;;;;;;;64.70;18.80;;;4.40;65.80;;;;;;5037409;28;20063;-39
2021/10/20 05:28:07;;;;;;;60.72;18.95;;;4.50;65.50;;;;;;5037163;28;20029;-38
2021/10/20 05:30:34;;;;;;;53.65;19.52;;;4.60;65.10;;;;;;5036863;28;20109;-36
2021/10/20 05:32:59;;;;;;;86.93;22.58;;;4.60;64.80;;;;;;5036793;28;20034;-38
2021/10/20 05:35:26;;;;;;;69.95;21.23;;;4.70;64.50;;;;;;5037137;28;20036;-34
2021/10/20 05:37:53;;;;;;;53.60;19.20;;;4.80;64.20;;;;;;5036795;28;20134;-38
2021/10/20 05:40:21;;;;;;;38.78;17.80;;;4.90;63.80;;;;;;5036832;28;20025;-38
2021/10/20 05:42:47;;;;;;;48.22;19.23;;;5.00;63.60;;;;;;5036462;28;20036;-39
2021/10/20 05:45:13;;;;;;;57.13;20.27;;;5.00;63.40;;;;;;5036871;28;20120;-35
2021/10/20 05:47:39;;;;;;;45.00;20.50;;;5.10;63.30;;;;;;5036439;28;20330;-35
2021/10/20 05:50:06;;;;;;;45.33;20.63;;;5.10;63.20;;;;;;5036698;28;20112;-35
2021/10/20 05:52:32;;;;;;;50.75;18.30;;;5.20;63.10;;;;;;5036719;28;20033;-38
2021/10/20 05:54:58;;;;;;;68.50;20.48;;;5.20;63.20;;;;;;5036652;28;20112;-35
2021/10/20 05:57:26;;;;;;;55.30;20.02;;;5.30;63.30;;;;;;5036314;28;20125;-35
2021/10/20 05:59:51;;;;;;;42.38;20.20;;;5.30;63.10;;;;;;5036278;28;20430;-39
2021/10/20 06:02:17;;;;;;;69.68;20.20;;;5.40;63.00;;;;;;5036064;28;20072;-38
2021/10/20 06:04:43;;;;;;;40.45;18.95;;;5.40;62.80;;;;;;5036215;28;20026;-35
2021/10/20 06:07:10;;;;;;;47.25;18.20;;;5.40;62.80;;;;;;5036119;28;20085;-39
2021/10/20 06:09:35;;;;;;;42.72;18.38;;;5.50;62.90;;;;;;5035948;28;20029;-39
2021/10/20 06:12:02;;;;;;;43.70;18.95;;;5.60;62.80;;;;;;5036064;28;20112;-39
2021/10/20 06:14:28;;;;;;;57.05;19.48;;;5.60;62.90;;;;;;5036140;28;20363;-39
2021/10/20 06:16:54;;;;;;;59.30;19.77;;;5.60;62.90;;;;;;5034876;28;20084;-35
2021/10/20 06:19:20;;;;;;;54.80;17.88;;;5.70;62.90;;;;;;5035463;28;20100;-39
2021/10/20 06:21:46;;;;;;;41.03;17.42;;;5.70;63.00;;;;;;5035922;28;20030;-38
2021/10/20 06:24:12;;;;;;;40.17;18.52;;;5.80;63.10;;;;;;5035807;28;20056;-34
2021/10/20 06:26:39;;;;;;;34.00;15.95;;;5.80;63.10;;;;;;5035582;28;20045;-34
2021/10/20 06:29:05;;;;;;;44.67;19.08;;;5.80;63.00;;;;;;5035789;28;20100;-35
2021/10/20 06:31:30;;;;;;;58.15;19.10;;;5.90;63.00;;;;;;5034242;28;20061;-34
2021/10/20 06:33:56;;;;;;;38.58;16.80;;;5.90;63.00;;;;;;5035762;28;20137;-36
2021/10/20 06:36:28;;;;;;;37.63;16.45;;;6.00;63.10;;;;;;5035263;28;20029;-38
2021/10/20 06:38:54;;;;;;;46.72;18.50;;;6.00;63.10;;;;;;5036111;28;20319;-35
2021/10/20 06:41:20;;;;;;;49.00;16.95;;;6.10;63.30;;;;;;5035287;28;20223;-35
2021/10/20 06:43:45;;;;;;;49.75;18.42;;;6.20;63.50;;;;;;5035429;28;20032;-36
2021/10/20 06:46:11;;;;;;;38.70;15.82;;;6.30;63.60;;;;;;5035066;28;20025;-37
2021/10/20 06:48:38;;;;;;;33.05;15.13;;;6.40;63.70;;;;;;5034438;28;20038;-36
2021/10/20 06:51:04;;;;;;;50.22;16.75;;;6.50;63.60;;;;;;5035393;28;20039;-40
2021/10/20 06:53:30;;;;;;;36.78;16.48;;;6.60;63.60;;;;;;5035798;28;20048;-37
2021/10/20 06:55:55;;;;;;;54.90;21.00;;;6.70;63.40;;;;;;5035031;28;20041;-35
2021/10/20 06:58:21;;;;;;;68.25;21.45;;;6.90;63.20;;;;;;5035534;28;20034;-35
2021/10/20 07:00:47;;;;;;;63.55;22.52;;;7.00;63.00;;;;;;5035435;28;20061;-39
2021/10/20 07:03:12;;;;;;;76.53;21.23;;;7.10;62.80;;;;;;5034864;28;20082;-39
2021/10/20 07:05:38;;;;;;;41.25;16.38;;;7.20;62.60;;;;;;5035060;28;20032;-39
2021/10/20 07:08:04;;;;;;;42.20;15.95;;;7.40;62.60;;;;;;5035355;28;20046;-35
2021/10/20 07:10:29;;;;;;;37.33;15.32;;;7.50;62.40;;;;;;5035049;28;20113;-38
2021/10/20 07:12:55;;;;;;;38.00;15.20;;;7.60;62.00;;;;;;5035481;28;20045;-39
2021/10/20 07:15:21;;;;;;;57.72;15.57;;;7.70;61.90;;;;;;5035164;28;20382;-39
2021/10/20 07:17:47;;;;;;;33.30;12.85;;;7.80;61.70;;;;;;5035247;28;20469;-39
2021/10/20 07:20:13;;;;;;;25.38;11.93;;;7.90;61.60;;;;;;5035051;28;20049;-39
2021/10/20 07:22:40;;;;;;;30.15;10.98;;;8.10;61.20;;;;;;5034847;28;20034;-35
2021/10/20 07:25:10;;;;;;;33.33;11.82;;;8.10;60.80;;;;;;5035287;28;20037;-39
2021/10/20 07:27:37;;;;;;;44.38;10.45;;;8.20;60.40;;;;;;5035155;28;20029;-35
2021/10/20 07:30:07;;;;;;;38.63;12.90;;;8.30;59.60;;;;;;5035141;28;20134;-39
2021/10/20 07:32:33;;;;;;;32.55;11.45;;;8.40;59.80;;;;;;5034754;28;20033;-40
2021/10/20 07:34:58;;;;;;;41.22;12.32;;;8.50;59.40;;;;;;5034774;28;20029;-38
2021/10/20 07:37:24;;;;;;;25.25;11.15;;;8.60;59.30;;;;;;5034766;28;20037;-34
2021/10/20 07:39:50;;;;;;;20.08;9.70;;;8.70;59.00;;;;;;5034775;28;20021;-34
2021/10/20 07:42:15;;;;;;;17.20;8.55;;;8.80;58.70;;;;;;5034908;28;20034;-35
2021/10/20 07:44:42;;;;;;;17.30;8.20;;;8.90;57.50;;;;;;5034726;28;20030;-35
2021/10/20 07:47:08;;;;;;;13.80;7.60;;;9.00;57.50;;;;;;5034790;28;20415;-33
2021/10/20 07:49:34;;;;;;;18.85;8.40;;;9.00;57.20;;;;;;5035201;28;20056;-34
2021/10/20 07:51:59;;;;;;;16.52;8.13;;;9.20;56.90;;;;;;5034844;28;20060;-35
2021/10/20 07:54:25;;;;;;;32.85;9.15;;;9.20;56.40;;;;;;5034661;28;20057;-35
2021/10/20 07:56:52;;;;;;;15.68;7.65;;;9.30;55.90;;;;;;5034567;28;20045;-34
2021/10/20 07:59:21;;;;;;;16.00;6.55;;;9.40;55.20;;;;;;5034623;28;20029;-38
2021/10/20 08:01:49;;;;;;;29.58;7.55;;;9.40;54.20;;;;;;5034549;28;20053;-40
2021/10/20 08:04:14;;;;;;;14.27;7.32;;;9.50;53.70;;;;;;5034741;28;20372;-35
2021/10/20 08:06:40;;;;;;;16.10;6.70;;;9.60;52.70;;;;;;5033458;28;20041;-38
2021/10/20 08:09:06;;;;;;;19.33;7.28;;;9.70;52.70;;;;;;5034963;28;20120;-39
2021/10/20 08:11:32;;;;;;;33.95;8.95;;;9.70;52.70;;;;;;5034086;28;20091;-39
2021/10/20 08:13:57;;;;;;;21.92;7.93;;;9.80;52.90;;;;;;5035659;28;20382;-39
2021/10/20 08:16:23;;;;;;;15.13;6.18;;;9.80;53.10;;;;;;5037596;28;20036;-39
2021/10/20 08:18:48;;;;;;;12.85;6.63;;;9.90;52.10;;;;;;5038439;28;20033;-35
2021/10/20 08:21:14;;;;;;;14.65;6.30;;;10.00;52.10;;;;;;5038144;28;20052;-35
2021/10/20 08:23:41;;;;;;;13.77;5.88;;;10.10;52.30;;;;;;5038721;28;20033;-38
2021/10/20 08:26:08;;;;;;;10.75;5.93;;;10.20;51.40;;;;;;5037263;28;20059;-35
2021/10/20 08:28:34;;;;;;;21.38;6.95;;;10.30;50.90;;;;;;5038246;28;20064;-35
2021/10/20 08:31:00;;;;;;;25.17;6.40;;;10.40;50.60;;;;;;5037809;28;20037;-40
2021/10/20 08:33:26;;;;;;;18.30;6.45;;;10.50;51.00;;;;;;5037646;28;20037;-35
2021/10/20 08:35:51;;;;;;;17.67;6.28;;;10.60;50.80;;;;;;5037479;28;20071;-39
2021/10/20 08:38:17;;;;;;;43.92;8.05;;;10.70;49.80;;;;;;5037973;28;20036;-34
2021/10/20 08:40:47;;;;;;;15.00;6.13;;;10.70;49.70;;;;;;5037859;28;20029;-35
2021/10/20 08:43:17;;;;;;;15.20;5.78;;;10.80;49.50;;;;;;5038026;28;20126;-35
2021/10/20 08:45:44;;;;;;;23.63;5.57;;;10.90;48.60;;;;;;5038044;28;20038;-35
2021/10/20 08:48:12;;;;;;;13.35;5.32;;;11.00;48.50;;;;;;5037668;28;20041;-35
2021/10/20 08:50:38;;;;;;;16.25;5.25;;;11.00;48.20;;;;;;5037691;28;20037;-35
2021/10/20 08:53:04;;;;;;;7.90;4.25;;;11.10;47.80;;;;;;5037926;28;20033;-35
2021/10/20 08:55:30;;;;;;;16.33;5.38;;;11.20;47.60;;;;;;5037331;28;20037;-35
2021/10/20 08:57:56;;;;;;;15.27;5.00;;;11.30;47.60;;;;;;5037689;28;20057;-35
2021/10/20 09:00:24;;;;;;;12.18;5.15;;;11.40;47.40;;;;;;5037323;28;20025;-35
2021/10/20 09:02:50;;;;;;;10.38;4.53;;;11.40;47.10;;;;;;5037617;28;20406;-38
2021/10/20 09:05:25;;;;;;;10.65;4.18;;;11.60;46.90;;;;;;5037494;28;20045;-34
2021/10/20 09:07:55;;;;;;;24.98;6.95;;;11.60;46.90;;;;;;5037413;28;20099;-35
2021/10/20 09:10:24;;;;;;;11.93;6.30;;;11.70;47.40;;;;;;5037599;28;20061;-35
2021/10/20 09:12:50;;;;;;;14.35;6.82;;;11.80;47.40;;;;;;5037269;28;20398;-35
2021/10/20 09:15:20;;;;;;;39.75;8.32;;;11.90;47.70;;;;;;5037281;28;20041;-36
2021/10/20 09:17:58;;;;;;;20.42;6.57;;;11.90;48.00;;;;;;5036950;28;20040;-35
2021/10/20 09:20:24;;;;;;;12.18;6.25;;;12.00;48.20;;;;;;5036856;28;20022;-39
2021/10/20 09:23:00;;;;;;;17.70;7.07;;;12.10;47.80;;;;;;5037449;28;20028;-35
2021/10/20 09:25:32;;;;;;;27.02;6.97;;;12.20;47.70;;;;;;5036200;28;20022;-36
2021/10/20 09:27:58;;;;;;;24.40;7.60;;;12.20;47.80;;;;;;5037099;28;20341;-37
2021/10/20 09:30:28;;;;;;;14.30;6.40;;;12.30;47.70;;;;;;5037019;28;20044;-39
2021/10/20 09:32:59;;;;;;;15.70;6.72;;;12.40;47.60;;;;;;5037194;28;20059;-36
2021/10/20 09:35:29;;;;;;;17.35;8.18;;;12.40;47.40;;;;;;5036879;28;20029;-39
2021/10/20 09:37:58;;;;;;;27.77;7.25;;;12.50;47.50;;;;;;5036992;28;20365;-35
2021/10/20 09:40:25;;;;;;;11.18;6.65;;;12.50;47.30;;;;;;5036971;28;20114;-39
2021/10/20 09:42:53;;;;;;;15.13;6.97;;;12.70;47.20;;;;;;5036777;28;20037;-35
2021/10/20 09:45:21;;;;;;;15.68;6.80;;;12.70;47.30;;;;;;5036372;28;20029;-35
2021/10/20 09:47:47;;;;;;;14.25;5.82;;;12.80;46.80;;;;;;5036651;28;20029;-38
2021/10/20 09:50:14;;;;;;;20.05;7.07;;;12.90;46.90;;;;;;5036554;28;20056;-36
2021/10/20 09:52:52;;;;;;;19.85;5.97;;;12.90;46.90;;;;;;5036404;28;20030;-35
2021/10/20 09:55:30;;;;;;;15.60;5.95;;;13.00;46.20;;;;;;5036578;28;20030;-35
2021/10/20 09:58:13;;;;;;;12.55;5.22;;;13.10;45.80;;;;;;5036497;28;20053;-40
2021/10/20 10:00:39;;;;;;;19.73;6.32;;;13.10;45.30;;;;;;5036165;28;20022;-40
2021/10/20 10:03:06;;;;;;;9.07;5.78;;;13.20;45.50;;;;;;5036559;28;20034;-39
2021/10/20 10:05:32;;;;;;;40.65;7.53;;;13.30;45.40;;;;;;5034946;28;20021;-36
2021/10/20 10:07:58;;;;;;;17.55;5.55;;;13.40;44.80;;;;;;5036297;28;20040;-38
2021/10/20 10:10:24;;;;;;;9.23;5.53;;;13.50;44.90;;;;;;5036057;28;20061;-39
2021/10/20 10:12:58;;;;;;;11.05;5.15;;;13.60;44.70;;;;;;5036346;28;20037;-34
2021/10/20 10:15:25;;;;;;;43.67;6.82;;;13.70;44.20;;;;;;5036125;28;20117;-35
2021/10/20 10:17:55;;;;;;;12.25;5.30;;;13.80;44.00;;;;;;5035856;28;20303;-39
2021/10/20 10:20:22;;;;;;;30.20;7.47;;;14.00;43.30;;;;;;5035929;28;20053;-34
2021/10/20 10:22:55;;;;;;;20.63;6.13;;;14.00;43.10;;;;;;5035946;28;20036;-40
2021/10/20 10:25:56;;;;;;;13.43;5.32;;;14.00;43.10;;;;;;5035630;28;20056;-37
2021/10/20 10:28:24;;;;;;;14.48;5.88;;;14.10;43.30;;;;;;5035771;28;20073;-35
2021/10/20 10:31:05;;;;;;;46.28;8.30;;;14.10;43.80;;;;;;5035711;28;20108;-37
2021/10/20 10:33:33;;;;;;;25.77;7.78;;;14.20;43.70;;;;;;5034748;28;20069;-34
2021/10/20 10:36:25;;;;;;;19.67;6.32;;;14.20;43.60;;;;;;5035887;28;20116;-36
2021/10/20 10:38:59;;;;;;;20.15;6.53;;;14.30;43.60;;;;;;5035535;28;20042;-39
2021/10/20 10:41:28;;;;;;;18.70;7.35;;;14.30;43.80;;;;;;5034923;28;20029;-35
2021/10/20 10:44:04;;;;;;;34.90;7.18;;;14.30;44.00;;;;;;5035439;28;20121;-41
2021/10/20 10:46:36;;;;;;;16.60;6.97;;;14.30;44.20;;;;;;5035084;28;20124;-39
2021/10/20 10:49:04;;;;;;;13.93;7.40;;;14.30;44.40;;;;;;5035586;28;20037;-35
2021/10/20 10:51:30;;;;;;;14.40;6.80;;;14.30;45.10;;;;;;5034276;28;20041;-35
2021/10/20 10:54:02;;;;;;;20.63;8.05;;;14.30;44.80;;;;;;5035650;28;20033;-37
2021/10/20 10:56:28;;;;;;;17.15;6.82;;;14.30;45.00;;;;;;5034788;28;20151;-39
2021/10/20 10:59:05;;;;;;;15.70;7.05;;;14.30;45.10;;;;;;5035416;28;20029;-40
2021/10/20 11:01:48;;;;;;;20.80;6.97;;;14.30;45.30;;;;;;5034925;28;20295;-36
2021/10/20 11:04:17;;;;;;;23.65;8.10;;;14.30;45.60;;;;;;5035019;28;20112;-34
2021/10/20 11:06:44;;;;;;;14.93;7.18;;;14.30;45.70;;;;;;5035169;28;20041;-40
2021/10/20 11:09:09;;;;;;;23.92;10.90;;;14.30;45.60;;;;;;5035374;28;20033;-39
2021/10/20 11:11:35;;;;;;;16.05;7.68;;;14.30;45.30;;;;;;5034832;28;20037;-36
2021/10/20 11:14:01;;;;;;;11.15;6.72;;;14.30;45.40;;;;;;5035411;28;20033;-36
2021/10/20 11:16:27;;;;;;;16.10;6.88;;;14.30;45.60;;;;;;5035030;28;20034;-36
2021/10/20 11:18:54;;;;;;;19.83;7.60;;;14.40;45.60;;;;;;5035245;28;20470;-36
2021/10/20 11:21:21;;;;;;;16.92;8.18;;;14.40;45.70;;;;;;5034940;28;20034;-39
2021/10/20 11:23:47;;;;;;;17.40;6.95;;;14.50;45.90;;;;;;5035198;28;20026;-40
2021/10/20 11:26:14;;;;;;;18.88;6.72;;;14.50;45.80;;;;;;5035017;28;20109;-39
2021/10/20 11:28:41;;;;;;;13.55;6.25;;;14.50;45.90;;;;;;5035370;28;20068;-39
2021/10/20 11:31:10;;;;;;;13.48;6.38;;;14.50;45.90;;;;;;5035115;28;20044;-40
2021/10/20 11:33:36;;;;;;;40.00;7.53;;;14.50;46.30;;;;;;5034020;28;20112;-35
2021/10/20 11:36:02;;;;;;;39.88;7.75;;;14.50;46.50;;;;;;5034665;28;20493;-35
2021/10/20 11:38:34;;;;;;;15.13;6.35;;;14.60;46.70;;;;;;5034625;28;20037;-39
2021/10/20 11:41:00;;;;;;;21.55;8.70;;;14.70;46.60;;;;;;5034774;28;20497;-38
2021/10/20 11:43:35;;;;;;;23.20;7.30;;;14.80;46.90;;;;;;5035160;28;20061;-39
2021/10/20 11:46:01;;;;;;;17.83;6.90;;;14.90;47.20;;;;;;5034985;28;20041;-39
2021/10/20 11:48:27;;;;;;;27.85;9.07;;;15.00;47.30;;;;;;5035209;28;20037;-36
2021/10/20 11:50:58;;;;;;;11.20;7.30;;;15.10;47.40;;;;;;5038292;28;20418;-35
2021/10/20 11:53:27;;;;;;;20.48;7.82;;;15.20;47.40;;;;;;5038862;28;20029;-35
2021/10/20 11:55:54;;;;;;;28.52;9.70;;;15.40;47.30;;;;;;5038418;28;20318;-35
2021/10/20 11:58:21;;;;;;;29.38;9.63;;;15.50;47.30;;;;;;5037442;28;20064;-40
2021/10/20 12:00:57;;;;;;;43.63;9.38;;;15.60;47.40;;;;;;5038719;28;20072;-39
2021/10/20 12:03:37;;;;;;;21.70;8.90;;;15.70;47.50;;;;;;5038560;28;20091;-40
2021/10/20 12:06:07;;;;;;;16.83;8.80;;;15.80;47.50;;;;;;5038873;28;20125;-39
2021/10/20 12:08:33;;;;;;;25.25;9.48;;;15.90;47.60;;;;;;5038404;28;20121;-39
2021/10/20 12:10:59;;;;;;;21.27;8.70;;;16.00;47.60;;;;;;5038302;28;20104;-35
2021/10/20 12:13:26;;;;;;;27.05;9.27;;;16.00;47.60;;;;;;5038692;28;20042;-35
2021/10/20 12:15:51;;;;;;;12.93;8.85;;;16.10;47.60;;;;;;5038426;28;20029;-40
2021/10/20 12:18:18;;;;;;;17.80;8.68;;;16.20;47.80;;;;;;5038460;28;20072;-39
2021/10/20 12:20:55;;;;;;;19.67;7.88;;;16.30;48.00;;;;;;5038661;28;20033;-40
2021/10/20 12:23:21;;;;;;;13.63;8.50;;;16.30;48.10;;;;;;5038375;28;20049;-36
2021/10/20 12:25:47;;;;;;;20.92;8.90;;;16.40;48.30;;;;;;5038028;28;20045;-36
2021/10/20 12:28:13;;;;;;;21.10;8.10;;;16.50;48.40;;;;;;5038221;28;20029;-39
2021/10/20 12:30:41;;;;;;;14.88;7.15;;;16.60;48.60;;;;;;5038431;28;20075;-40
2021/10/20 12:33:12;;;;;;;19.38;9.35;;;16.80;48.70;;;;;;5038170;28;20167;-38
2021/10/20 12:35:43;;;;;;;12.45;7.65;;;16.90;48.60;;;;;;5037721;28;20057;-36
2021/10/20 12:38:11;;;;;;;24.92;8.38;;;17.00;48.50;;;;;;5036698;28;20490;-35